Westfield, NC (27053)

1:08 AM EDT on May 28, 2017 (GMT -0400)
Lawsonville NC Hart Rd. | | Change Station
Active Advisory: Severe Thunderstorm Watch

Elev 1112 ft 36.49 °N, 80.25 °W | Updated 10 seconds ago

Partly Cloudy
Partly Cloudy
68.5 °F
Feels Like 68.5 °F
N
0.0
Wind Variable Wind from West
Gusts 0.0 mph

Today
High -- | Low -- °F
--% Chance of Precip.
Yesterday
High -- | Low -- °F
Precip. -- in
Pressure 29.94 in
Visibility 10.0 miles
Clouds Scattered Clouds 12000 ft
Dew Point 62 °F
Humidity 80%
Rainfall 0.00 in
Snow Depth Not available.
6:06 AM 8:31 PM
Waxing Crescent, 9% visible
METAR KMWK 280455Z AUTO 00000KT 10SM SCT120 19/17 A2994 RMK AO2 T01940165
Pressure 29.94 in
Visibility 10.0 miles
Clouds Scattered Clouds 12000 ft
Dew Point 62 °F
Humidity 80%
Rainfall 0.00 in
Snow Depth Not available.
6:06 AM 8:31 PM
Waxing Crescent, 9% visible
METAR KMWK 280455Z AUTO 00000KT 10SM SCT120 19/17 A2994 RMK AO2 T01940165

Get Your Daily Forecast Email!

Thanks for signing up!

Be on the lookout for a verification email in your inbox.

You'll start receiving severe weather alerts in your inbox..

×

10-Day Weather Forecast

Almanac

Astronomy

May. 28, 2017 Rise Set
Actual Time
Civil Twilight
Nautical Twilight
Astronomical Twilight
Moon
Length of Visible Light
Length of Day
Tomorrow will be .
, % of the Moon is Illuminated

Today's Extremes

State Highs State Lows

Community

WunderPhotos

Category 6

Welcome to Category 6. This is the collective home for Weather Underground's featured writeups by Dr. Jeff Masters (right), Bob Henson (left), Chris Burt, and other regular contributors.

Nearby

Air Quality

  Air Quality AQ Index Pollutant
Not available.

Snow Depth

Station Depth Elevation

Earthquake Activity

City Distance Mag. Time & Date
Minimum magnitude displayed is 2.5.

Coastal Water Temperatures

Place Temperature

Stations

Nearby Weather Stations

Station Location Temp. Windchill Dew Point Humidity Wind Precip. Elev Updated Type
                   

Watches & Warnings

Severe Thunderstorm Watch
Issued: 1:03 AM EDT May. 28, 2017 – National Weather Service

Severe Thunderstorm Watch 282 remains in effect until 200 am EDT
for the following locations


NC
. North Carolina counties included are

Alexander Alleghany Ashe
Avery Buncombe Burke
Cabarrus Caldwell Catawba
Cherokee Clay Cleveland
Davie Gaston Graham
Haywood Henderson Iredell
Jackson Lincoln McDowell
Macon Madison Mecklenburg
Mitchell Polk Rowan
Rutherford Stokes Surry
Swain Transylvania Watauga
Wilkes Yadkin Yancey